Time;durP1;ratioP1;P1;durP2;ratioP2;P2;SDS_P1;SDS_P2;PMS_P1;PMS_P2;Temp;Humidity;BMP_temperature;BMP_pressure;BME280_temperature;BME280_humidity;BME280_pressure;Samples;Min_cycle;Max_cycle;Signal;HPM_P1;HPM_P2
2021/12/05 00:19:06;;;;;;;0.87;0.20;;;3.20;99.90;;;;;;4973742;28;20030;-87
2021/12/05 00:24:05;;;;;;;6.45;0.50;;;3.00;99.90;;;;;;4967622;28;20042;-88
2021/12/05 00:26:34;;;;;;;2.73;0.60;;;3.00;99.90;;;;;;4970903;28;20415;-88
2021/12/05 00:29:11;;;;;;;1.53;0.37;;;3.00;99.90;;;;;;4969914;28;20525;-88
2021/12/05 00:32:48;;;;;;;1.77;0.40;;;3.00;99.90;;;;;;4952916;28;20487;-88
2021/12/05 00:48:55;;;;;;;0.93;0.20;;;2.90;99.90;;;;;;4971378;28;20045;-88
2021/12/05 01:15:17;;;;;;;1.80;0.40;;;2.80;99.90;;;;;;4974619;28;20034;-87
2021/12/05 01:18:01;;;;;;;;;;;2.80;99.90;;;;;;4974835;28;20105;-88
2021/12/05 01:20:33;;;;;;;2.10;0.60;;;2.80;99.90;;;;;;4957763;28;19992;-88
2021/12/05 01:23:12;;;;;;;0.60;0.20;;;2.80;99.90;;;;;;4970227;28;20046;-87
2021/12/05 01:25:52;;;;;;;1.77;0.40;;;3.00;99.90;;;;;;4971966;28;20026;-87
2021/12/05 01:34:12;;;;;;;1.50;0.37;;;3.00;99.90;;;;;;4971403;28;20035;-87
2021/12/05 01:39:32;;;;;;;0.50;0.20;;;2.80;99.90;;;;;;4972644;28;20085;-88
2021/12/05 02:11:52;;;;;;;2.83;0.50;;;2.80;99.90;;;;;;4972681;28;20398;-88
2021/12/05 02:33:50;;;;;;;5.57;0.50;;;2.70;99.90;;;;;;4971722;28;20067;-86
2021/12/05 02:41:39;;;;;;;1.90;0.20;;;2.90;99.90;;;;;;4972083;28;20173;-87
2021/12/05 02:44:20;;;;;;;1.33;0.20;;;2.70;99.90;;;;;;4975984;28;20015;-87
2021/12/05 02:46:57;;;;;;;0.37;0.10;;;2.50;99.90;;;;;;4960663;28;20019;-88
2021/12/05 02:49:25;;;;;;;5.00;0.30;;;2.40;99.90;;;;;;4958002;28;20801;-87
2021/12/05 02:52:00;;;;;;;1.33;0.30;;;2.50;99.90;;;;;;4972316;28;20022;-87
2021/12/05 02:54:32;;;;;;;0.87;0.23;;;2.60;99.90;;;;;;4958658;28;20035;-88
2021/12/05 02:56:59;;;;;;;1.10;0.40;;;2.70;99.90;;;;;;4973385;28;20022;-87
2021/12/05 02:59:40;;;;;;;2.40;0.40;;;2.50;99.90;;;;;;4957864;28;20025;-87
2021/12/05 03:02:17;;;;;;;1.27;0.30;;;2.50;99.90;;;;;;4969346;28;20479;-87
2021/12/05 03:04:46;;;;;;;6.73;0.60;;;2.70;99.90;;;;;;4957840;28;20023;-87
2021/12/05 03:07:19;;;;;;;4.37;0.30;;;2.50;99.90;;;;;;4955426;28;20023;-88
2021/12/05 03:09:45;;;;;;;1.33;0.47;;;2.60;99.90;;;;;;4969352;28;20086;-87
2021/12/05 03:12:17;;;;;;;2.40;0.50;;;2.60;99.90;;;;;;4967913;28;20030;-87
2021/12/05 03:14:46;;;;;;;1.58;0.30;;;2.60;99.90;;;;;;4973615;28;20035;-87
2021/12/05 03:17:12;;;;;;;1.73;0.33;;;2.60;99.90;;;;;;4955811;28;20031;-87
2021/12/05 03:19:38;;;;;;;2.07;0.30;;;2.50;99.90;;;;;;4972674;28;20110;-87
2021/12/05 03:22:04;;;;;;;1.80;0.60;;;2.60;99.90;;;;;;4967285;28;20022;-87
2021/12/05 03:24:30;;;;;;;3.30;0.40;;;2.70;99.90;;;;;;4970045;28;20030;-88
2021/12/05 03:26:56;;;;;;;1.97;0.50;;;2.70;99.90;;;;;;4970097;28;20061;-88
2021/12/05 03:29:23;;;;;;;3.17;0.47;;;2.70;99.90;;;;;;4956722;28;20035;-88
2021/12/05 03:31:50;;;;;;;2.23;0.40;;;2.80;99.90;;;;;;4970722;28;20023;-88
2021/12/05 03:34:17;;;;;;;1.47;0.30;;;2.70;99.90;;;;;;4959162;28;20242;-87
2021/12/05 03:36:46;;;;;;;1.70;0.30;;;2.60;99.90;;;;;;4970722;28;20039;-88
2021/12/05 03:39:13;;;;;;;2.57;0.67;;;2.60;99.90;;;;;;4966828;28;20027;-87
2021/12/05 03:41:40;;;;;;;2.00;0.33;;;2.60;99.90;;;;;;4970664;28;20023;-87
2021/12/05 03:44:08;;;;;;;0.67;0.23;;;2.60;99.90;;;;;;4969783;28;20027;-87
2021/12/05 03:46:35;;;;;;;4.93;0.40;;;2.80;99.90;;;;;;4971265;28;20116;-88
2021/12/05 03:49:06;;;;;;;4.03;0.40;;;2.60;99.90;;;;;;4969839;28;20125;-88
2021/12/05 03:51:38;;;;;;;3.00;0.40;;;2.50;99.90;;;;;;4952318;28;20031;-87
2021/12/05 03:54:05;;;;;;;2.83;0.67;;;2.50;99.90;;;;;;4968556;28;20065;-87
2021/12/05 03:56:33;;;;;;;1.23;0.20;;;2.40;99.90;;;;;;4970646;28;20057;-88
2021/12/05 03:58:59;;;;;;;2.43;0.40;;;2.40;99.90;;;;;;4967444;28;20041;-87
2021/12/05 04:01:26;;;;;;;2.07;0.40;;;2.40;99.90;;;;;;4965280;28;20034;-87
2021/12/05 04:03:53;;;;;;;0.63;0.20;;;2.40;99.90;;;;;;4949485;28;20475;-87
2021/12/05 04:06:21;;;;;;;1.37;0.40;;;2.40;99.90;;;;;;4952345;28;20479;-87
2021/12/05 04:08:48;;;;;;;3.70;0.40;;;2.30;99.90;;;;;;4967163;28;20380;-88
2021/12/05 04:11:29;;;;;;;1.27;0.20;;;2.30;99.90;;;;;;4966317;28;20034;-88
2021/12/05 04:13:55;;;;;;;0.93;0.30;;;2.30;99.90;;;;;;4966722;28;20050;-88
2021/12/05 04:16:21;;;;;;;2.87;0.60;;;2.40;99.90;;;;;;4951276;29;20062;-88
2021/12/05 04:18:47;;;;;;;2.90;0.40;;;2.40;99.90;;;;;;4954020;28;20018;-87
2021/12/05 04:21:15;;;;;;;3.50;0.50;;;2.40;99.90;;;;;;4966772;28;20027;-88
2021/12/05 04:23:41;;;;;;;3.77;0.60;;;2.40;99.90;;;;;;4952294;28;20077;-88
2021/12/05 04:26:09;;;;;;;3.40;0.40;;;2.60;99.90;;;;;;4968602;28;20018;-87
2021/12/05 04:28:35;;;;;;;0.63;0.20;;;2.40;99.90;;;;;;4970233;28;20522;-88
2021/12/05 04:31:03;;;;;;;3.13;0.87;;;2.50;99.90;;;;;;4965476;28;20031;-88
2021/12/05 04:33:29;;;;;;;1.30;0.30;;;2.50;99.90;;;;;;4967812;28;20137;-88
2021/12/05 04:35:54;;;;;;;2.03;0.50;;;2.50;99.90;;;;;;4966062;28;20479;-88
2021/12/05 04:38:20;;;;;;;1.00;0.40;;;2.50;99.90;;;;;;4952312;28;20086;-88
2021/12/05 04:40:48;;;;;;;1.37;0.37;;;2.50;99.90;;;;;;4969757;28;20019;-88
2021/12/05 04:43:13;;;;;;;2.67;1.27;;;2.50;99.90;;;;;;4953904;28;20020;-87
2021/12/05 04:45:40;;;;;;;3.40;0.40;;;2.60;99.90;;;;;;4970172;28;20029;-87
2021/12/05 04:48:07;;;;;;;3.70;0.40;;;2.60;99.90;;;;;;4964922;28;20459;-88
2021/12/05 04:50:35;;;;;;;2.77;0.40;;;2.60;99.90;;;;;;4967792;28;20015;-88
2021/12/05 04:53:00;;;;;;;1.67;0.30;;;2.60;99.90;;;;;;4967505;28;20074;-87
2021/12/05 04:55:27;;;;;;;2.37;0.30;;;2.50;99.90;;;;;;4960707;28;20023;-87
2021/12/05 04:57:56;;;;;;;4.10;0.60;;;2.70;99.90;;;;;;4976951;28;20491;-88
2021/12/05 05:00:29;;;;;;;1.40;0.70;;;2.70;99.90;;;;;;4974742;28;20061;-88
2021/12/05 05:02:55;;;;;;;0.43;0.20;;;2.50;99.90;;;;;;4973897;28;20114;-88
2021/12/05 05:05:22;;;;;;;1.50;0.30;;;2.60;99.90;;;;;;4950171;28;20058;-87
2021/12/05 05:07:48;;;;;;;2.17;0.50;;;2.60;99.90;;;;;;4970634;28;20081;-87
2021/12/05 05:10:24;;;;;;;1.33;0.20;;;2.50;99.90;;;;;;4967426;28;20027;-88
2021/12/05 05:12:50;;;;;;;1.90;0.67;;;2.40;99.90;;;;;;4968387;28;20479;-87
2021/12/05 05:15:22;;;;;;;1.47;0.40;;;2.30;99.90;;;;;;4971199;28;20038;-88
2021/12/05 05:17:50;;;;;;;3.37;0.20;;;2.30;99.90;;;;;;4975115;28;20029;-88
2021/12/05 05:20:56;;;;;;;0.90;0.20;;;2.30;99.90;;;;;;4973175;28;20043;-88
2021/12/05 05:23:31;;;;;;;1.08;0.20;;;2.30;99.90;;;;;;4968579;28;20054;-89
2021/12/05 05:29:08;;;;;;;1.10;0.30;;;2.20;99.90;;;;;;4971829;28;20019;-89
2021/12/05 05:43:08;;;;;;;0.90;0.27;;;2.10;99.90;;;;;;4978920;28;20031;-88
2021/12/05 05:45:48;;;;;;;1.93;0.20;;;1.90;99.90;;;;;;4969875;28;20486;-87
2021/12/05 05:48:30;;;;;;;2.27;0.53;;;1.90;99.90;;;;;;4968553;28;20061;-88
2021/12/05 05:50:56;;;;;;;1.33;0.50;;;1.80;99.90;;;;;;4955861;28;20034;-88
2021/12/05 05:53:21;;;;;;;2.73;0.50;;;1.80;99.90;;;;;;4968826;28;20039;-88
2021/12/05 05:55:48;;;;;;;0.80;0.37;;;1.80;99.90;;;;;;4970347;28;20109;-88
2021/12/05 05:58:16;;;;;;;1.97;0.50;;;1.80;99.90;;;;;;4969945;28;20034;-88
2021/12/05 06:01:06;;;;;;;3.00;0.40;;;1.80;99.90;;;;;;4969694;28;20101;-88
2021/12/05 06:03:32;;;;;;;0.90;0.30;;;1.80;99.90;;;;;;4956568;28;20019;-88
2021/12/05 06:06:17;;;;;;;3.47;0.60;;;1.80;99.90;;;;;;4964049;28;20488;-88
2021/12/05 06:08:44;;;;;;;0.60;0.30;;;1.80;99.90;;;;;;4953470;28;20061;-88
2021/12/05 06:11:13;;;;;;;0.80;0.20;;;1.70;99.90;;;;;;4970602;28;20031;-88
2021/12/05 06:13:40;;;;;;;2.30;0.37;;;1.70;99.90;;;;;;4970709;28;20027;-89
2021/12/05 06:16:10;;;;;;;3.00;0.40;;;1.70;99.90;;;;;;4953885;28;20019;-89
2021/12/05 06:18:37;;;;;;;1.47;0.40;;;1.70;99.90;;;;;;4970957;28;20160;-89
2021/12/05 06:21:04;;;;;;;1.00;0.50;;;1.70;99.90;;;;;;4969499;28;20035;-88
2021/12/05 06:23:29;;;;;;;1.13;0.67;;;1.70;99.90;;;;;;4966156;28;20032;-88
2021/12/05 06:25:55;;;;;;;0.70;0.20;;;1.60;99.90;;;;;;4970550;28;20115;-88
2021/12/05 06:28:36;;;;;;;1.07;0.30;;;1.60;99.90;;;;;;4952179;28;20307;-88
2021/12/05 06:39:23;;;;;;;0.10;0.10;;;1.60;99.90;;;;;;4966313;28;20073;-88
2021/12/05 06:41:59;;;;;;;0.50;0.20;;;1.50;99.90;;;;;;4970040;28;20042;-88
2021/12/05 06:47:13;;;;;;;1.00;0.30;;;1.50;99.90;;;;;;4966544;28;20034;-88
2021/12/05 06:49:40;;;;;;;1.07;0.30;;;1.50;99.90;;;;;;4972128;28;20069;-88
2021/12/05 06:52:07;;;;;;;0.93;0.20;;;1.70;99.90;;;;;;4968495;28;20027;-89
2021/12/05 06:54:39;;;;;;;1.63;0.20;;;1.50;99.90;;;;;;4968234;28;20499;-90
2021/12/05 06:57:06;;;;;;;0.35;0.20;;;1.50;99.90;;;;;;4954372;28;20027;-89
2021/12/05 06:59:39;;;;;;;1.80;0.63;;;1.50;99.90;;;;;;4971055;28;20480;-89
2021/12/05 07:02:07;;;;;;;3.00;0.40;;;1.50;99.90;;;;;;4953753;28;20031;-89
2021/12/05 07:07:23;;;;;;;1.40;0.30;;;1.50;99.90;;;;;;4969617;28;20444;-90
2021/12/05 07:09:52;;;;;;;0.70;0.20;;;1.60;99.90;;;;;;4952776;28;20118;-90
2021/12/05 07:42:41;;;;;;;2.27;0.50;;;1.70;99.90;;;;;;4968379;28;20509;-88
2021/12/05 07:45:12;;;;;;;1.83;0.30;;;1.50;99.90;;;;;;4947740;28;20030;-88
2021/12/05 07:47:43;;;;;;;1.30;0.50;;;1.50;99.90;;;;;;4969597;28;20015;-88
2021/12/05 07:50:10;;;;;;;1.33;0.30;;;1.60;99.90;;;;;;4964581;28;20054;-89
2021/12/05 07:52:43;;;;;;;1.17;0.30;;;1.80;99.90;;;;;;4967858;28;20081;-88
2021/12/05 07:55:18;;;;;;;0.97;0.30;;;1.60;99.90;;;;;;4969270;28;20029;-88
2021/12/05 07:58:05;;;;;;;6.47;0.57;;;1.60;99.90;;;;;;4953991;28;20042;-88
2021/12/05 08:14:33;;;;;;;3.67;0.50;;;1.80;99.90;;;;;;4964613;28;20115;-88
2021/12/05 08:17:00;;;;;;;1.00;0.40;;;1.90;99.90;;;;;;4951664;28;20403;-88
2021/12/05 08:19:26;;;;;;;1.73;0.97;;;2.00;99.90;;;;;;4968129;28;20037;-89
2021/12/05 08:21:55;;;;;;;2.23;0.50;;;2.00;99.90;;;;;;4964097;28;20019;-89
2021/12/05 08:24:24;;;;;;;6.83;0.33;;;2.10;99.90;;;;;;4965073;28;20031;-89
2021/12/05 08:26:51;;;;;;;2.87;0.30;;;2.00;99.90;;;;;;4968913;28;20030;-89
2021/12/05 08:29:23;;;;;;;1.47;0.40;;;2.00;99.90;;;;;;4948388;28;20542;-88
2021/12/05 08:40:16;;;;;;;3.40;0.77;;;2.30;99.90;;;;;;4964551;28;20038;-89
2021/12/05 09:21:55;;;;;;;4.70;0.30;;;2.80;99.90;;;;;;4972292;28;20089;-88
2021/12/05 09:29:58;;;;;;;1.63;0.47;;;2.90;99.90;;;;;;4973971;28;20034;-88
2021/12/05 10:10:34;;;;;;;2.47;0.57;;;3.80;99.90;;;;;;4986081;23;22669;-83
2021/12/05 10:13:23;;;;;;;0.83;0.27;;;3.80;99.90;;;;;;4969632;28;20027;-85
2021/12/05 10:37:26;;;;;;;0.83;0.53;;;4.40;99.90;;;;;;4959386;28;20078;-87
2021/12/05 10:40:34;;;;;;;0.50;0.20;;;4.50;99.90;;;;;;4962131;28;20026;-87
2021/12/05 10:43:01;;;;;;;1.00;0.30;;;4.70;99.90;;;;;;4950242;28;20042;-86
2021/12/05 10:45:35;;;;;;;1.00;0.20;;;4.50;99.90;;;;;;4962235;28;20094;-86
2021/12/05 10:48:06;;;;;;;1.57;0.40;;;4.50;99.90;;;;;;4955765;28;20094;-83
2021/12/05 10:50:46;;;;;;;2.17;0.30;;;4.40;99.90;;;;;;4944986;28;20027;-83
2021/12/05 10:53:45;;;;;;;1.17;0.20;;;4.30;99.90;;;;;;4965526;28;20027;-83
2021/12/05 10:56:18;;;;;;;0.90;0.30;;;4.50;99.90;;;;;;4949772;28;20499;-83
2021/12/05 10:59:25;;;;;;;0.63;0.30;;;4.60;99.90;;;;;;4950844;28;20103;-81
2021/12/05 11:01:55;;;;;;;2.13;0.63;;;4.70;99.90;;;;;;4926614;28;20408;-83
2021/12/05 11:04:45;;;;;;;2.90;1.20;;;4.70;99.90;;;;;;4936550;28;20032;-83
2021/12/05 11:07:19;;;;;;;0.67;0.10;;;4.70;99.90;;;;;;4962406;28;20491;-83
2021/12/05 11:09:48;;;;;;;1.20;0.47;;;4.80;99.90;;;;;;4956837;28;20081;-83
2021/12/05 11:12:32;;;;;;;2.97;0.47;;;4.80;99.90;;;;;;4972748;28;20470;-84
2021/12/05 11:15:10;;;;;;;1.23;0.40;;;4.90;99.90;;;;;;4960517;28;20431;-83
2021/12/05 11:17:43;;;;;;;3.80;0.73;;;4.90;99.90;;;;;;4957122;28;20671;-83
2021/12/05 11:20:09;;;;;;;0.57;0.17;;;4.90;99.90;;;;;;4959723;28;20039;-83
2021/12/05 11:22:36;;;;;;;0.63;0.10;;;4.90;99.90;;;;;;4973112;28;20022;-83
2021/12/05 11:25:13;;;;;;;1.93;0.60;;;4.80;99.90;;;;;;4958353;28;20114;-83
2021/12/05 11:27:42;;;;;;;1.17;0.30;;;4.80;99.90;;;;;;4962854;28;20387;-83
2021/12/05 11:30:17;;;;;;;5.80;0.40;;;4.80;99.90;;;;;;4955065;28;20031;-84
2021/12/05 11:32:51;;;;;;;1.23;0.17;;;4.80;99.90;;;;;;4963925;28;20027;-83
2021/12/05 11:35:38;;;;;;;0.93;0.20;;;4.90;99.90;;;;;;4968475;28;20145;-84
2021/12/05 11:38:24;;;;;;;0.40;0.10;;;5.00;99.90;;;;;;4950022;28;20058;-84
2021/12/05 11:41:08;;;;;;;1.53;0.20;;;5.20;99.90;;;;;;4974641;28;20035;-83
2021/12/05 11:43:36;;;;;;;5.03;0.40;;;5.40;99.90;;;;;;4955676;28;20016;-83
2021/12/05 11:46:11;;;;;;;0.23;0.10;;;5.40;99.90;;;;;;4958317;28;20087;-83
2021/12/05 11:48:53;;;;;;;0.60;0.10;;;5.50;99.90;;;;;;4940583;28;20547;-83
2021/12/05 11:51:28;;;;;;;1.02;0.20;;;5.60;99.90;;;;;;4953526;28;20591;-83
2021/12/05 11:53:53;;;;;;;0.80;0.20;;;5.50;99.90;;;;;;4955914;28;20032;-83
2021/12/05 11:56:42;;;;;;;1.33;0.10;;;5.40;99.90;;;;;;4959789;28;20042;-84
2021/12/05 11:59:08;;;;;;;1.40;0.17;;;5.30;99.90;;;;;;4943337;28;20044;-83
2021/12/05 12:01:41;;;;;;;0.40;0.10;;;5.20;99.90;;;;;;4968712;28;20034;-83
2021/12/05 12:04:08;;;;;;;0.37;0.10;;;5.20;99.90;;;;;;4953155;28;20404;-83
2021/12/05 12:06:34;;;;;;;0.10;0.10;;;5.10;99.90;;;;;;4966110;28;20420;-83
2021/12/05 12:09:00;;;;;;;0.23;0.10;;;4.90;99.90;;;;;;4963890;28;20028;-83
2021/12/05 12:11:27;;;;;;;0.50;0.10;;;5.00;99.90;;;;;;4958469;28;20507;-83
2021/12/05 12:13:54;;;;;;;1.17;0.30;;;5.10;99.90;;;;;;4951227;28;20495;-84
2021/12/05 12:16:21;;;;;;;0.70;0.20;;;5.10;99.90;;;;;;4952088;28;20173;-83
2021/12/05 12:18:49;;;;;;;0.30;0.10;;;5.20;99.90;;;;;;4948014;28;20035;-83
2021/12/05 12:21:19;;;;;;;2.07;0.90;;;5.20;99.90;;;;;;4941482;28;20110;-83
2021/12/05 12:23:49;;;;;;;2.20;0.30;;;5.30;99.90;;;;;;4958451;28;20035;-84
2021/12/05 12:26:16;;;;;;;2.90;0.43;;;5.30;99.90;;;;;;4953855;28;20035;-83
2021/12/05 12:28:42;;;;;;;0.27;0.10;;;5.40;99.90;;;;;;4932737;29;20038;-83
2021/12/05 12:31:25;;;;;;;0.47;0.20;;;5.50;99.90;;;;;;4944091;28;20356;-82
2021/12/05 12:34:00;;;;;;;1.10;0.40;;;5.40;99.90;;;;;;4967745;28;20459;-83
2021/12/05 12:36:40;;;;;;;1.90;0.20;;;5.40;99.90;;;;;;4959895;28;20034;-83
2021/12/05 12:39:18;;;;;;;0.93;0.23;;;5.30;99.90;;;;;;4958792;28;20046;-83
2021/12/05 12:42:15;;;;;;;0.73;0.20;;;5.10;99.90;;;;;;4954886;28;20024;-84
2021/12/05 12:45:08;;;;;;;0.53;0.10;;;5.20;99.90;;;;;;4944247;28;20078;-83
2021/12/05 12:47:39;;;;;;;;;;;5.20;99.90;;;;;;4950173;28;20078;-83
2021/12/05 12:50:50;;;;;;;0.70;0.20;;;5.10;99.90;;;;;;4938952;28;19933;-84
2021/12/05 12:53:37;;;;;;;1.20;0.30;;;5.10;99.90;;;;;;4892550;29;20084;-84
2021/12/05 12:56:09;;;;;;;1.17;0.43;;;5.20;99.90;;;;;;4949530;28;20377;-84
2021/12/05 12:58:42;;;;;;;0.15;0.00;;;5.20;99.90;;;;;;4946226;28;20036;-84
2021/12/05 13:01:19;;;;;;;1.30;0.10;;;5.20;99.90;;;;;;4965903;28;20032;-83
2021/12/05 13:10:11;;;;;;;1.20;0.10;;;5.00;99.90;;;;;;4905557;28;20041;-83
2021/12/05 13:12:40;;;;;;;0.37;0.10;;;5.00;99.90;;;;;;4953393;28;20117;-85
2021/12/05 13:15:16;;;;;;;0.10;0.00;;;5.00;99.90;;;;;;4967255;28;20497;-85
2021/12/05 13:17:46;;;;;;;0.80;0.17;;;5.10;99.90;;;;;;4950873;28;20547;-84
2021/12/05 13:20:15;;;;;;;0.77;0.20;;;4.80;99.90;;;;;;4948639;28;20035;-84
2021/12/05 13:23:04;;;;;;;0.87;0.10;;;4.70;99.90;;;;;;4950133;28;20055;-83
2021/12/05 13:25:32;;;;;;;0.47;0.10;;;4.70;99.90;;;;;;4936245;28;20038;-84
2021/12/05 13:28:29;;;;;;;0.10;0.10;;;4.80;99.90;;;;;;4933645;29;20016;-83
2021/12/05 13:30:56;;;;;;;0.83;0.00;;;5.00;99.90;;;;;;4931941;29;20093;-84
2021/12/05 13:33:25;;;;;;;0.97;0.10;;;5.00;99.90;;;;;;4932746;29;20510;-84
2021/12/05 13:35:57;;;;;;;0.30;0.07;;;5.10;99.90;;;;;;4934912;29;20397;-84
2021/12/05 13:38:35;;;;;;;0.13;0.03;;;5.10;99.90;;;;;;4937079;29;20024;-84
2021/12/05 13:41:16;;;;;;;0.40;0.10;;;5.00;99.90;;;;;;4935163;29;20107;-83
2021/12/05 13:43:58;;;;;;;0.83;0.10;;;4.90;99.90;;;;;;4944790;28;20028;-84
2021/12/05 13:46:36;;;;;;;0.40;0.13;;;4.90;99.90;;;;;;4936601;29;20476;-84
2021/12/05 13:49:35;;;;;;;0.10;0.10;;;4.80;99.90;;;;;;4934040;28;20035;-84
2021/12/05 13:52:39;;;;;;;0.30;0.10;;;4.70;99.90;;;;;;4935959;29;20054;-83
2021/12/05 13:55:42;;;;;;;0.20;0.10;;;4.70;99.90;;;;;;4937746;28;20569;-84
2021/12/05 13:58:29;;;;;;;0.63;0.20;;;4.60;99.90;;;;;;4965670;28;20106;-84
2021/12/05 14:01:11;;;;;;;0.40;0.10;;;4.50;99.90;;;;;;4958999;28;20027;-84
2021/12/05 14:03:51;;;;;;;1.05;0.20;;;4.50;99.90;;;;;;4953959;28;20026;-84
2021/12/05 14:06:37;;;;;;;0.50;0.20;;;4.40;99.90;;;;;;4938623;28;20689;-84
2021/12/05 14:09:19;;;;;;;0.37;0.17;;;4.40;99.90;;;;;;4936211;29;20405;-84
2021/12/05 14:11:50;;;;;;;3.40;0.20;;;4.30;99.90;;;;;;4935422;29;20411;-84
2021/12/05 14:14:18;;;;;;;0.37;0.00;;;4.30;99.90;;;;;;4934842;29;20571;-83
2021/12/05 14:16:48;;;;;;;2.73;0.27;;;4.30;99.90;;;;;;4934921;29;20798;-84
2021/12/05 14:19:17;;;;;;;0.30;0.10;;;4.30;99.90;;;;;;4934951;29;20031;-84
2021/12/05 14:21:48;;;;;;;0.40;0.10;;;4.30;99.90;;;;;;4934548;29;20035;-84
2021/12/05 14:24:17;;;;;;;0.98;0.13;;;4.30;99.90;;;;;;4944469;28;20555;-84
2021/12/05 14:26:45;;;;;;;0.60;0.20;;;4.30;99.90;;;;;;4953829;28;20074;-84
2021/12/05 14:29:19;;;;;;;0.63;0.20;;;4.40;99.90;;;;;;4955215;28;20082;-84
2021/12/05 14:31:58;;;;;;;0.73;0.17;;;4.40;99.90;;;;;;4949843;28;20032;-85
2021/12/05 14:34:25;;;;;;;0.57;0.10;;;4.40;99.90;;;;;;4950598;28;20087;-84
2021/12/05 14:36:59;;;;;;;1.07;0.30;;;4.50;99.90;;;;;;4935707;29;20382;-84
2021/12/05 14:39:31;;;;;;;1.23;0.20;;;4.50;99.90;;;;;;4935928;29;20038;-84
2021/12/05 14:42:01;;;;;;;0.30;0.20;;;4.60;99.90;;;;;;4934028;29;20036;-84
2021/12/05 14:44:27;;;;;;;1.17;0.40;;;4.60;99.90;;;;;;4934314;29;20111;-84
2021/12/05 14:46:56;;;;;;;2.60;0.27;;;4.60;99.90;;;;;;4933632;29;20032;-84
2021/12/05 14:49:24;;;;;;;0.57;0.20;;;4.50;99.90;;;;;;4931573;28;20043;-83
2021/12/05 14:51:51;;;;;;;0.30;0.10;;;4.50;99.90;;;;;;4933724;29;20035;-84
2021/12/05 14:54:20;;;;;;;3.30;0.40;;;4.50;99.90;;;;;;4934158;29;20093;-84
2021/12/05 14:56:45;;;;;;;2.00;0.60;;;4.40;99.90;;;;;;4934087;29;20567;-84
2021/12/05 14:59:14;;;;;;;3.13;0.97;;;4.40;99.90;;;;;;4942368;28;20031;-84
2021/12/05 15:01:42;;;;;;;3.40;0.90;;;4.40;99.90;;;;;;4934919;29;20031;-83
2021/12/05 15:04:10;;;;;;;3.90;0.43;;;4.30;99.90;;;;;;4943550;28;20483;-84
2021/12/05 15:06:42;;;;;;;1.53;0.40;;;4.30;99.90;;;;;;4953275;28;20058;-84
2021/12/05 15:09:31;;;;;;;1.60;0.50;;;4.30;99.90;;;;;;4949482;28;20035;-84
2021/12/05 15:12:16;;;;;;;1.80;0.20;;;4.20;99.90;;;;;;4949237;28;20102;-84
2021/12/05 15:14:44;;;;;;;1.13;0.20;;;4.20;99.90;;;;;;4950281;28;20075;-84
2021/12/05 15:17:12;;;;;;;1.33;0.27;;;4.10;99.90;;;;;;4949438;28;20441;-84
2021/12/05 15:19:41;;;;;;;0.50;0.20;;;4.10;99.90;;;;;;4935264;29;20169;-84
2021/12/05 15:22:08;;;;;;;2.87;0.43;;;4.00;99.90;;;;;;4933351;29;20181;-84
2021/12/05 15:24:34;;;;;;;2.47;0.40;;;4.00;99.90;;;;;;4944600;28;20369;-83
2021/12/05 15:27:01;;;;;;;1.60;0.30;;;3.90;99.90;;;;;;4948410;28;20035;-84
2021/12/05 15:29:28;;;;;;;0.70;0.27;;;3.90;99.90;;;;;;4933818;29;20031;-84
2021/12/05 15:31:55;;;;;;;1.07;0.20;;;3.80;99.90;;;;;;4933950;29;20397;-84
2021/12/05 15:34:25;;;;;;;1.13;0.20;;;3.80;99.90;;;;;;4934682;29;20035;-84
2021/12/05 15:36:52;;;;;;;2.40;0.30;;;3.80;99.90;;;;;;4944884;28;20094;-84
2021/12/05 15:39:21;;;;;;;2.23;0.60;;;3.70;99.90;;;;;;4953066;28;20031;-83
2021/12/05 15:41:53;;;;;;;2.07;0.20;;;3.70;99.90;;;;;;4952320;28;20138;-84
2021/12/05 15:44:28;;;;;;;1.70;0.20;;;3.60;99.90;;;;;;4946195;28;20087;-84
2021/12/05 15:47:04;;;;;;;2.07;0.30;;;3.60;99.90;;;;;;4933440;29;20485;-84
2021/12/05 15:49:54;;;;;;;0.70;0.23;;;3.60;99.90;;;;;;4946487;28;20492;-84
2021/12/05 15:52:35;;;;;;;1.90;0.27;;;3.60;99.90;;;;;;4948835;28;20028;-84
2021/12/05 15:55:08;;;;;;;1.03;0.30;;;3.60;99.90;;;;;;4934383;29;20046;-84
2021/12/05 15:57:39;;;;;;;0.90;0.40;;;3.50;99.90;;;;;;4934004;29;20110;-84
2021/12/05 16:00:16;;;;;;;4.43;0.40;;;3.50;99.90;;;;;;4934395;29;20160;-84
2021/12/05 16:02:47;;;;;;;2.27;0.43;;;3.50;99.90;;;;;;4934322;29;20016;-84
2021/12/05 16:05:16;;;;;;;2.20;0.53;;;3.40;99.90;;;;;;4948985;28;20027;-84
2021/12/05 16:07:42;;;;;;;1.57;0.70;;;3.40;99.90;;;;;;4933178;29;20115;-84
2021/12/05 16:10:15;;;;;;;1.30;0.50;;;3.40;99.90;;;;;;4932817;29;20130;-84
2021/12/05 16:12:43;;;;;;;3.40;0.60;;;3.40;99.90;;;;;;4981997;23;20130;-83
2021/12/05 16:15:10;;;;;;;4.47;1.30;;;3.40;99.90;;;;;;4946776;29;20031;-83
2021/12/05 16:17:36;;;;;;;8.57;2.80;;;3.40;99.90;;;;;;4946144;29;20024;-83
2021/12/05 16:20:24;;;;;;;7.50;2.50;;;3.40;99.90;;;;;;4964780;28;20042;-83
2021/12/05 16:22:59;;;;;;;6.17;1.37;;;3.40;99.90;;;;;;4963647;28;20023;-83
2021/12/05 16:25:27;;;;;;;6.87;3.03;;;3.40;99.90;;;;;;4980204;28;20026;-83
2021/12/05 16:27:59;;;;;;;4.37;1.63;;;3.50;99.90;;;;;;4965830;28;20023;-83
2021/12/05 16:30:30;;;;;;;5.82;2.00;;;3.50;99.90;;;;;;4951744;28;20402;-83
2021/12/05 16:32:56;;;;;;;7.00;2.00;;;3.60;99.90;;;;;;4946626;29;20092;-83
2021/12/05 16:35:36;;;;;;;5.37;1.87;;;3.50;99.90;;;;;;4964551;28;20042;-85
2021/12/05 16:38:26;;;;;;;3.80;1.40;;;3.50;99.90;;;;;;4947524;28;20034;-84
2021/12/05 16:40:56;;;;;;;4.23;1.40;;;3.50;99.90;;;;;;4963274;28;20046;-85
2021/12/05 16:43:23;;;;;;;6.90;2.20;;;3.50;99.90;;;;;;4962927;29;20071;-84
2021/12/05 16:45:55;;;;;;;6.63;2.30;;;3.40;99.90;;;;;;4945175;29;20023;-83
2021/12/05 16:48:21;;;;;;;5.03;2.25;;;3.40;99.90;;;;;;4962358;28;20031;-83
2021/12/05 16:50:47;;;;;;;6.17;2.23;;;3.40;99.90;;;;;;4945010;28;20038;-84
2021/12/05 16:53:14;;;;;;;8.23;2.23;;;3.30;99.90;;;;;;4961935;29;20162;-85
2021/12/05 16:55:45;;;;;;;3.93;1.93;;;3.30;99.90;;;;;;4945519;29;20107;-84
2021/12/05 16:58:17;;;;;;;5.77;2.03;;;3.30;99.90;;;;;;4945441;29;20027;-85
2021/12/05 17:00:52;;;;;;;3.57;1.53;;;3.30;99.90;;;;;;4962506;28;20024;-84
2021/12/05 17:03:23;;;;;;;4.87;1.50;;;3.20;99.90;;;;;;4964869;28;20023;-85
2021/12/05 17:05:51;;;;;;;4.07;1.30;;;3.20;99.90;;;;;;4960482;29;20032;-85
2021/12/05 17:08:28;;;;;;;4.47;1.40;;;3.20;99.90;;;;;;4961720;29;20392;-85
2021/12/05 17:11:04;;;;;;;5.07;1.60;;;3.20;99.90;;;;;;4964584;28;20106;-84
2021/12/05 17:13:34;;;;;;;6.23;1.53;;;3.10;99.90;;;;;;4947138;29;20047;-85
2021/12/05 17:16:06;;;;;;;3.57;1.00;;;3.10;99.90;;;;;;4946285;29;20027;-84
2021/12/05 17:18:41;;;;;;;4.82;1.20;;;3.00;99.90;;;;;;4964609;29;20079;-84
2021/12/05 17:21:17;;;;;;;4.07;1.30;;;3.00;99.90;;;;;;4963475;28;20023;-84
2021/12/05 17:23:47;;;;;;;2.77;1.10;;;3.00;99.90;;;;;;4968621;28;20054;-85
2021/12/05 17:26:20;;;;;;;2.83;0.90;;;3.00;99.90;;;;;;4965250;28;20027;-85
2021/12/05 17:28:53;;;;;;;3.50;1.33;;;3.00;99.90;;;;;;4959290;28;20448;-86
2021/12/05 17:31:42;;;;;;;3.53;1.27;;;2.90;99.90;;;;;;4975671;28;20485;-86
2021/12/05 17:34:20;;;;;;;4.57;1.80;;;2.90;99.90;;;;;;4990816;28;20026;-86
2021/12/05 17:36:56;;;;;;;5.20;1.90;;;2.90;99.90;;;;;;4982447;28;20487;-86
2021/12/05 17:39:26;;;;;;;3.57;1.63;;;2.90;99.90;;;;;;4967710;28;20050;-86
2021/12/05 17:41:54;;;;;;;4.40;1.67;;;2.90;99.90;;;;;;4972262;28;20484;-87
2021/12/05 17:44:20;;;;;;;5.47;1.70;;;3.00;99.90;;;;;;4974864;28;20080;-87
2021/12/05 17:46:50;;;;;;;4.47;1.60;;;2.90;99.90;;;;;;4970728;28;20048;-87
2021/12/05 17:49:17;;;;;;;3.50;1.70;;;3.00;99.90;;;;;;4954908;28;20037;-86
2021/12/05 17:51:44;;;;;;;3.90;1.50;;;3.00;99.90;;;;;;4979511;28;20090;-84
2021/12/05 17:54:13;;;;;;;4.30;1.73;;;2.90;99.90;;;;;;4989839;28;20515;-84
2021/12/05 17:56:50;;;;;;;5.53;1.43;;;2.90;99.90;;;;;;4988427;28;20027;-84
2021/12/05 18:04:31;;;;;;;5.07;1.50;;;3.00;99.90;;;;;;4989784;28;20034;-83
2021/12/05 18:06:58;;;;;;;4.20;1.30;;;3.10;99.90;;;;;;4982332;28;20030;-83
2021/12/05 18:09:24;;;;;;;4.00;1.40;;;3.10;99.90;;;;;;4987646;28;20042;-83
2021/12/05 18:11:51;;;;;;;7.60;2.97;;;3.10;99.90;;;;;;4988884;28;20086;-83
2021/12/05 18:14:17;;;;;;;10.20;4.43;;;3.40;99.90;;;;;;4989606;28;20034;-83
2021/12/05 18:16:43;;;;;;;6.33;2.63;;;3.30;99.90;;;;;;4990275;28;20024;-84
2021/12/05 18:19:15;;;;;;;6.10;1.80;;;3.10;99.90;;;;;;4989416;28;20046;-83
2021/12/05 18:21:42;;;;;;;2.75;1.33;;;3.30;99.90;;;;;;4987690;28;20027;-83
2021/12/05 18:24:12;;;;;;;3.40;1.40;;;3.30;99.90;;;;;;4988223;28;20027;-83
2021/12/05 18:26:39;;;;;;;4.00;1.43;;;3.60;99.90;;;;;;4965339;28;20023;-83
2021/12/05 18:29:10;;;;;;;6.90;1.80;;;3.40;99.90;;;;;;4966776;28;20761;-83
2021/12/05 18:31:36;;;;;;;3.60;1.37;;;3.40;99.90;;;;;;4967840;28;20391;-83
2021/12/05 18:34:19;;;;;;;4.00;1.33;;;3.40;99.90;;;;;;4968643;28;20037;-83
2021/12/05 18:36:46;;;;;;;2.47;1.27;;;3.50;99.90;;;;;;4971162;28;20031;-83
2021/12/05 18:39:20;;;;;;;5.27;1.77;;;3.50;99.90;;;;;;4981792;28;20112;-83
2021/12/05 18:41:46;;;;;;;2.83;1.00;;;3.50;99.90;;;;;;4980706;28;20026;-83
2021/12/05 18:44:17;;;;;;;3.33;1.37;;;3.50;99.90;;;;;;4983945;28;20111;-83